Time;durP1;ratioP1;P1;durP2;ratioP2;P2;SDS_P1;SDS_P2;PMS_P1;PMS_P2;Temp;Humidity;BMP_temperature;BMP_pressure;BME280_temperature;BME280_humidity;BME280_pressure;Samples;Min_cycle;Max_cycle;Signal;HPM_P1;HPM_P2
2023/09/30 00:00:48;;;;;;;0.55;0.55;;;;;;;15.79;75.09;95032.91;5070667;28;20656;-73
2023/09/30 00:03:14;;;;;;;0.75;0.40;;;;;;;15.84;74.81;95029.94;5070682;28;20651;-74
2023/09/30 00:05:41;;;;;;;0.43;0.43;;;;;;;15.82;75.61;95022.09;5071003;28;20565;-73
2023/09/30 00:08:09;;;;;;;0.43;0.43;;;;;;;15.86;75.57;95024.91;5070317;28;20207;-73
2023/09/30 00:10:36;;;;;;;0.40;0.40;;;;;;;15.79;75.45;95024.72;5070497;28;20312;-74
2023/09/30 00:13:03;;;;;;;0.20;0.20;;;;;;;15.40;76.42;95024.44;5070991;28;20392;-73
2023/09/30 00:15:30;;;;;;;1.60;1.20;;;;;;;15.43;76.22;95028.41;5070499;28;20671;-73
2023/09/30 00:17:57;;;;;;;0.20;0.20;;;;;;;15.60;75.33;95023.44;5070612;28;20280;-73
2023/09/30 00:20:24;;;;;;;1.10;0.65;;;;;;;15.74;74.59;95027.69;5070387;28;20210;-74
2023/09/30 00:22:50;;;;;;;0.50;0.50;;;;;;;15.85;73.89;95023.34;5070517;28;20263;-73
2023/09/30 00:25:20;;;;;;;0.95;0.77;;;;;;;15.87;73.96;95016.34;5069953;28;20230;-73
2023/09/30 00:27:47;;;;;;;0.47;0.47;;;;;;;15.79;74.65;95019.25;5069579;28;20590;-73
2023/09/30 00:30:14;;;;;;;0.32;0.32;;;;;;;15.84;74.03;95010.81;5069622;28;20264;-73
2023/09/30 00:32:41;;;;;;;0.30;0.30;;;;;;;15.92;73.99;95009.84;5070214;28;20207;-73
2023/09/30 00:35:11;;;;;;;1.38;0.60;;;;;;;16.00;73.58;95003.41;5069598;28;20218;-73
2023/09/30 00:37:37;;;;;;;0.50;0.30;;;;;;;16.08;73.38;95010.66;5074935;28;20264;-73
2023/09/30 00:40:05;;;;;;;0.20;0.20;;;;;;;16.06;73.82;95012.94;5069522;28;20647;-73
2023/09/30 00:42:33;;;;;;;1.13;0.90;;;;;;;16.08;73.23;95010.66;5070242;28;20531;-73
2023/09/30 00:45:00;;;;;;;0.40;0.40;;;;;;;16.11;73.45;95009.16;5069992;28;20191;-73
2023/09/30 00:47:27;;;;;;;0.57;0.57;;;;;;;16.19;73.15;95005.44;5069801;28;20222;-73
2023/09/30 00:49:54;;;;;;;1.27;1.08;;;;;;;16.31;73.69;95008.84;5070126;28;20199;-73
2023/09/30 00:52:21;;;;;;;0.43;0.43;;;;;;;16.25;73.90;95004.81;5069804;28;20312;-74
2023/09/30 00:54:50;;;;;;;0.45;0.45;;;;;;;16.24;73.49;95008.72;5070114;28;20223;-73
2023/09/30 00:57:19;;;;;;;0.65;0.45;;;;;;;16.23;73.77;95001.66;5069590;28;20763;-73
2023/09/30 00:59:49;;;;;;;0.20;0.20;;;;;;;16.29;73.83;95010.34;5069814;28;21017;-73
2023/09/30 01:02:16;;;;;;;0.20;0.20;;;;;;;16.23;73.91;95007.13;5070249;28;20583;-73
2023/09/30 01:04:44;;;;;;;1.58;1.13;;;;;;;16.17;73.92;95005.78;5069847;28;20199;-73
2023/09/30 01:07:11;;;;;;;2.45;0.75;;;;;;;16.14;74.11;95003.75;5069073;28;20207;-73
2023/09/30 01:09:38;;;;;;;0.52;0.52;;;;;;;16.16;73.64;95012.41;5069370;28;20215;-73
2023/09/30 01:12:05;;;;;;;0.57;0.55;;;;;;;16.11;72.99;94999.00;5069198;28;20280;-73
2023/09/30 01:14:34;;;;;;;0.43;0.30;;;;;;;16.17;73.04;94999.53;5053015;28;20234;-72
2023/09/30 01:17:03;;;;;;;0.30;0.30;;;;;;;16.19;73.10;94997.22;5069272;28;20199;-73
2023/09/30 01:19:31;;;;;;;0.90;0.75;;;;;;;16.22;73.34;94997.31;5069716;28;20230;-73
2023/09/30 01:22:01;;;;;;;2.58;1.60;;;;;;;16.20;73.15;94996.88;5070209;28;20289;-73
2023/09/30 01:24:28;;;;;;;0.55;0.55;;;;;;;16.25;72.65;95004.03;5069211;28;20202;-73
2023/09/30 01:26:56;;;;;;;0.38;0.38;;;;;;;16.29;72.96;95000.22;5069553;28;20214;-73
2023/09/30 01:29:23;;;;;;;0.85;0.65;;;;;;;16.30;73.18;94999.06;5069306;28;20544;-74
2023/09/30 01:31:49;;;;;;;1.48;1.30;;;;;;;16.32;73.00;95006.91;5069532;28;20252;-74
2023/09/30 01:34:17;;;;;;;0.40;0.40;;;;;;;16.21;73.34;94993.00;5069211;28;20202;-73
2023/09/30 01:36:44;;;;;;;0.50;0.50;;;;;;;16.26;73.48;94998.19;5077321;28;20202;-73
2023/09/30 01:39:13;;;;;;;0.20;0.20;;;;;;;16.31;73.41;94994.41;5075724;28;20202;-73
2023/09/30 01:41:40;;;;;;;0.30;0.30;;;;;;;16.22;74.17;94996.53;5076297;28;20203;-73
2023/09/30 01:44:07;;;;;;;0.73;0.73;;;;;;;16.09;75.35;94995.84;5075852;28;20203;-74
2023/09/30 01:46:34;;;;;;;0.55;0.55;;;;;;;16.12;75.94;95006.06;5075992;28;20259;-73
2023/09/30 01:49:01;;;;;;;0.25;0.25;;;;;;;16.03;76.84;94997.22;5076106;28;20198;-73
2023/09/30 01:51:28;;;;;;;0.80;0.80;;;;;;;15.93;76.97;94998.56;5076024;28;20223;-73
2023/09/30 01:53:55;;;;;;;0.25;0.25;;;;;;;15.91;77.21;95000.84;5075731;28;20218;-73
2023/09/30 01:56:24;;;;;;;0.75;0.75;;;;;;;15.90;76.93;94987.53;5075646;28;20329;-72
2023/09/30 01:58:50;;;;;;;0.28;0.28;;;;;;;15.89;77.10;95002.34;5075842;28;20540;-73
2023/09/30 02:01:17;;;;;;;2.17;1.00;;;;;;;15.91;77.13;94998.13;5075950;28;20555;-73
2023/09/30 02:03:44;;;;;;;0.40;0.40;;;;;;;15.96;76.37;94995.13;5075490;28;20234;-73
2023/09/30 02:06:11;;;;;;;4.68;0.88;;;;;;;16.01;76.02;94996.78;5075554;28;20257;-74
2023/09/30 02:08:38;;;;;;;0.28;0.28;;;;;;;16.00;76.43;94987.00;5075530;28;20242;-72
2023/09/30 02:11:05;;;;;;;0.45;0.45;;;;;;;15.95;76.25;94990.03;5075070;28;20900;-73
2023/09/30 02:13:35;;;;;;;0.85;0.70;;;;;;;15.99;75.62;94985.41;5075414;28;20586;-72
2023/09/30 02:16:00;;;;;;;0.35;0.35;;;;;;;15.87;77.29;94986.31;5075427;28;20223;-72
2023/09/30 02:18:28;;;;;;;1.35;0.60;;;;;;;15.91;76.54;94986.41;5075473;28;20211;-72
2023/09/30 02:20:55;;;;;;;0.30;0.30;;;;;;;15.80;76.66;94988.06;5075872;28;20535;-74
2023/09/30 02:23:22;;;;;;;0.60;0.60;;;;;;;15.71;77.76;94990.19;5075583;28;20209;-74
2023/09/30 02:25:49;;;;;;;0.20;0.20;;;;;;;15.48;78.09;94995.38;5076072;28;20610;-74
2023/09/30 02:28:16;;;;;;;0.28;0.28;;;;;;;15.36;79.42;94992.72;5075984;28;20288;-74
2023/09/30 02:30:44;;;;;;;0.55;0.55;;;;;;;15.23;79.73;94995.50;5075338;28;20257;-74
2023/09/30 02:33:11;;;;;;;0.75;0.40;;;;;;;15.09;80.13;94994.31;5075593;28;20198;-74
2023/09/30 02:35:38;;;;;;;0.75;0.70;;;;;;;15.02;80.35;94996.84;5076616;28;20238;-74
2023/09/30 02:38:06;;;;;;;0.22;0.22;;;;;;;15.07;79.95;94996.59;5079428;28;20217;-74
2023/09/30 02:40:33;;;;;;;0.50;0.50;;;;;;;15.06;79.57;94995.00;5075444;28;20238;-73
2023/09/30 02:43:00;;;;;;;0.90;0.90;;;;;;;15.05;79.21;94996.13;5075522;28;20281;-74
2023/09/30 02:45:27;;;;;;;0.17;0.17;;;;;;;14.96;79.80;94998.22;5075275;28;20629;-75
2023/09/30 02:47:55;;;;;;;0.68;0.60;;;;;;;14.98;79.52;94996.75;5074054;28;20563;-74
2023/09/30 02:50:22;;;;;;;0.60;0.50;;;;;;;14.86;80.84;94989.41;5071991;28;20305;-74
2023/09/30 02:52:49;;;;;;;0.50;0.50;;;;;;;14.77;81.65;94990.66;5072197;28;20209;-73
2023/09/30 02:55:16;;;;;;;0.35;0.35;;;;;;;14.69;82.01;94995.13;5071624;28;20245;-73
2023/09/30 02:57:43;;;;;;;1.38;0.70;;;;;;;14.63;82.73;94993.75;5072097;28;20218;-74
2023/09/30 03:00:21;;;;;;;0.40;0.38;;;;;;;14.63;83.12;94995.69;5071436;28;20214;-75
2023/09/30 03:02:47;;;;;;;0.52;0.20;;;;;;;14.65;82.66;94996.94;5069569;28;20631;-73
2023/09/30 03:05:16;;;;;;;0.52;0.52;;;;;;;14.62;83.38;94996.84;5071589;28;20206;-74
2023/09/30 03:07:43;;;;;;;0.63;0.63;;;;;;;14.66;83.28;94995.00;5072275;28;20211;-73
2023/09/30 03:10:10;;;;;;;0.25;0.25;;;;;;;14.45;84.50;94998.69;5071226;28;20223;-74
2023/09/30 03:12:37;;;;;;;0.20;0.20;;;;;;;14.25;85.72;94999.56;5068224;28;20298;-73
2023/09/30 03:15:04;;;;;;;0.20;0.20;;;;;;;14.23;85.56;94999.13;5071705;28;20234;-74
2023/09/30 03:17:31;;;;;;;1.40;1.30;;;;;;;14.27;85.42;94994.56;5071665;28;20203;-73
2023/09/30 03:19:58;;;;;;;4.32;2.33;;;;;;;14.27;86.45;94994.56;5072136;28;20234;-73
2023/09/30 03:22:28;;;;;;;1.05;0.43;;;;;;;14.14;87.35;95004.69;5068654;28;20257;-73
2023/09/30 03:24:56;;;;;;;0.38;0.30;;;;;;;14.21;86.71;94999.44;5069854;28;20305;-73
2023/09/30 03:27:23;;;;;;;0.45;0.43;;;;;;;14.28;86.40;94998.09;5062765;28;20579;-73
2023/09/30 03:29:50;;;;;;;0.40;0.40;;;;;;;14.11;87.58;94996.38;5061849;28;20256;-73
2023/09/30 03:32:17;;;;;;;0.85;0.85;;;;;;;14.14;88.45;94998.44;5068093;28;20329;-73
2023/09/30 03:34:46;;;;;;;0.60;0.60;;;;;;;14.14;88.22;94995.72;5062815;28;20253;-73
2023/09/30 03:37:13;;;;;;;0.55;0.55;;;;;;;14.14;88.17;95001.97;5063136;28;20624;-73
2023/09/30 03:39:41;;;;;;;0.52;0.52;;;;;;;14.14;89.19;95001.97;5059381;28;20246;-73
2023/09/30 03:42:11;;;;;;;0.95;0.95;;;;;;;14.14;87.94;94993.78;5061567;28;20199;-75
2023/09/30 03:44:39;;;;;;;0.20;0.20;;;;;;;14.14;88.81;94993.00;5062298;28;20223;-72
2023/09/30 03:47:07;;;;;;;0.20;0.20;;;;;;;14.16;89.06;94996.19;5060451;28;20231;-72
2023/09/30 03:49:34;;;;;;;0.20;0.20;;;;;;;14.06;87.82;94994.72;5063047;28;20587;-74
2023/09/30 03:52:01;;;;;;;0.20;0.20;;;;;;;14.05;88.13;94986.88;5059990;28;20191;-72
2023/09/30 03:54:28;;;;;;;0.20;0.20;;;;;;;14.05;89.10;94998.56;5061095;28;20214;-72
2023/09/30 03:56:56;;;;;;;0.63;0.57;;;;;;;13.94;89.85;94991.94;5061438;28;20299;-73
2023/09/30 03:59:23;;;;;;;0.32;0.32;;;;;;;13.95;88.95;94999.00;5059232;28;20193;-73
2023/09/30 04:01:50;;;;;;;1.17;0.40;;;;;;;13.92;89.15;94999.69;5060754;28;20199;-72
2023/09/30 04:04:16;;;;;;;1.02;1.02;;;;;;;13.83;90.27;94996.25;5058452;28;20200;-72
2023/09/30 04:06:43;;;;;;;0.47;0.47;;;;;;;13.79;91.32;95003.53;5060104;28;20191;-72
2023/09/30 04:09:12;;;;;;;0.20;0.20;;;;;;;13.78;90.76;94991.06;5060964;28;20653;-73
2023/09/30 04:11:39;;;;;;;0.38;0.38;;;;;;;13.83;90.72;94996.25;5061339;28;20243;-73
2023/09/30 04:14:08;;;;;;;0.50;0.50;;;;;;;13.87;90.89;94997.19;5061433;28;20199;-72
2023/09/30 04:16:37;;;;;;;0.40;0.40;;;;;;;13.75;90.79;95005.34;5061170;28;20259;-74
2023/09/30 04:19:04;;;;;;;0.43;0.43;;;;;;;13.72;91.77;95006.81;5059558;28;20657;-72
2023/09/30 04:21:34;;;;;;;0.28;0.28;;;;;;;13.74;90.93;95009.19;5067343;28;20210;-73
2023/09/30 04:24:01;;;;;;;2.95;1.38;;;;;;;13.72;91.65;95011.44;5070428;28;20207;-75
2023/09/30 04:26:28;;;;;;;0.93;0.85;;;;;;;13.58;93.59;95011.75;5067802;28;20203;-75
2023/09/30 04:28:55;;;;;;;0.82;0.82;;;;;;;13.58;94.21;95016.41;5063113;28;20288;-75
2023/09/30 04:31:23;;;;;;;0.43;0.43;;;;;;;13.60;94.20;95014.94;5073365;28;20225;-75
2023/09/30 04:33:52;;;;;;;0.43;0.38;;;;;;;13.69;91.80;95023.00;5066566;28;20203;-76
2023/09/30 04:36:19;;;;;;;0.52;0.52;;;;;;;13.75;88.63;95019.75;5065987;28;20223;-76
2023/09/30 04:38:46;;;;;;;0.30;0.30;;;;;;;13.83;87.26;95018.03;5069049;28;20222;-75
2023/09/30 04:41:15;;;;;;;0.38;0.38;;;;;;;13.85;87.43;95021.22;5068821;28;20207;-76
2023/09/30 04:43:43;;;;;;;1.40;0.55;;;;;;;14.07;87.93;95018.09;5069481;28;20210;-75
2023/09/30 04:46:12;;;;;;;5.65;2.63;;;;;;;14.61;86.40;95023.31;5065628;28;20207;-76
2023/09/30 04:48:40;;;;;;;3.30;2.15;;;;;;;15.22;83.88;95023.16;5071899;28;20720;-76
2023/09/30 04:51:08;;;;;;;5.65;3.03;;;;;;;15.77;80.79;95022.34;5064626;28;20199;-76
2023/09/30 04:53:35;;;;;;;0.75;0.70;;;;;;;16.21;77.65;95025.81;5064742;28;20279;-75
2023/09/30 04:56:03;;;;;;;0.80;0.80;;;;;;;16.32;77.24;95021.38;5066232;28;20234;-77
2023/09/30 04:58:31;;;;;;;0.45;0.45;;;;;;;17.16;74.21;95020.94;5067727;28;20635;-77
2023/09/30 05:00:58;;;;;;;4.45;0.95;;;;;;;17.25;71.96;95027.00;5067703;28;20215;-76
2023/09/30 05:03:25;;;;;;;0.60;0.60;;;;;;;17.71;69.97;95013.44;5064316;28;20198;-77
2023/09/30 05:05:55;;;;;;;0.50;0.50;;;;;;;17.93;68.07;95014.63;5057774;28;20264;-75
2023/09/30 05:08:23;;;;;;;0.85;0.73;;;;;;;18.32;66.48;95015.28;5066937;28;20274;-76
2023/09/30 05:10:50;;;;;;;1.48;1.00;;;;;;;19.00;65.28;95017.13;5063789;28;20231;-76
2023/09/30 05:13:17;;;;;;;0.82;0.65;;;;;;;19.86;62.78;95015.06;5063490;28;20583;-76
2023/09/30 05:15:44;;;;;;;4.45;1.48;;;;;;;20.32;61.34;95011.16;5058690;28;20216;-75
2023/09/30 05:18:11;;;;;;;0.68;0.60;;;;;;;20.72;59.06;95013.06;5059172;28;20211;-75
2023/09/30 05:20:38;;;;;;;1.00;0.60;;;;;;;20.56;58.51;95024.38;5065377;28;20376;-75
2023/09/30 05:23:08;;;;;;;1.90;0.85;;;;;;;20.83;56.79;95016.69;5060996;28;20261;-75
2023/09/30 05:25:33;;;;;;;2.40;1.70;;;;;;;21.25;55.08;95016.97;5054822;28;20250;-77
2023/09/30 05:28:00;;;;;;;2.25;1.48;;;;;;;21.50;54.13;95021.78;5049104;28;20231;-77
2023/09/30 05:30:26;;;;;;;0.43;0.43;;;;;;;21.84;52.79;95009.31;5057070;28;20628;-78
2023/09/30 05:32:54;;;;;;;1.67;0.75;;;;;;;22.28;51.79;95008.22;5066923;28;20195;-77
2023/09/30 05:35:22;;;;;;;4.00;2.47;;;;;;;22.41;51.03;95008.66;5068635;28;20614;-76
2023/09/30 05:37:52;;;;;;;2.47;2.20;;;;;;;22.46;50.57;95017.31;5067708;28;20306;-77
2023/09/30 05:40:24;;;;;;;5.82;2.40;;;;;;;22.44;50.49;95018.88;5067906;28;20207;-76
2023/09/30 05:42:52;;;;;;;4.72;2.25;;;;;;;22.96;49.43;95017.31;5050106;28;20560;-76
2023/09/30 05:45:19;;;;;;;3.05;2.10;;;;;;;23.36;48.21;95018.81;5055948;28;20652;-78
2023/09/30 05:47:46;;;;;;;3.47;2.10;;;;;;;23.69;47.68;95023.81;5068785;28;20249;-76
2023/09/30 05:50:15;;;;;;;4.68;2.53;;;;;;;23.64;47.35;95026.25;5060511;28;20546;-77
2023/09/30 05:52:42;;;;;;;2.72;2.10;;;;;;;24.01;46.69;95015.38;5049017;28;20217;-77
2023/09/30 05:55:10;;;;;;;3.55;1.70;;;;;;;24.84;45.31;95021.13;5049124;28;20261;-77
2023/09/30 05:57:39;;;;;;;3.50;2.13;;;;;;;24.78;45.34;95018.78;5048971;28;20783;-77
2023/09/30 06:00:20;;;;;;;3.13;2.17;;;;;;;24.55;45.32;95021.38;5048637;28;20255;-77
2023/09/30 06:02:47;;;;;;;3.28;2.20;;;;;;;24.73;44.76;95021.22;5048811;28;20203;-78
2023/09/30 06:05:16;;;;;;;3.13;2.70;;;;;;;25.26;44.14;95023.53;5048757;28;20296;-78
2023/09/30 06:07:45;;;;;;;2.63;2.03;;;;;;;25.29;44.09;95025.44;5066314;28;20276;-77
2023/09/30 06:10:12;;;;;;;4.25;2.60;;;;;;;25.16;43.58;95032.72;5068693;28;20223;-75
2023/09/30 06:12:41;;;;;;;2.88;2.17;;;;;;;24.78;44.82;95029.88;5069640;28;20594;-75
2023/09/30 06:15:10;;;;;;;3.35;2.25;;;;;;;25.33;44.19;95031.75;5069549;28;20206;-75
2023/09/30 06:17:37;;;;;;;3.67;2.67;;;;;;;25.64;42.77;95034.63;5068571;28;20266;-75
2023/09/30 06:20:09;;;;;;;4.03;2.38;;;;;;;25.89;42.51;95035.09;5065332;28;20238;-76
2023/09/30 06:22:36;;;;;;;3.75;2.35;;;;;;;26.09;42.38;95032.47;5050655;28;20218;-77
2023/09/30 06:25:03;;;;;;;4.50;2.45;;;;;;;26.44;41.71;95034.75;5046523;28;20688;-78
2023/09/30 06:27:31;;;;;;;3.95;2.28;;;;;;;26.64;41.47;95028.50;5052339;28;20294;-78
2023/09/30 06:30:02;;;;;;;2.65;2.20;;;;;;;26.50;40.94;95032.31;5050184;28;20199;-78
2023/09/30 06:32:29;;;;;;;3.47;2.50;;;;;;;26.56;40.60;95036.16;5049011;28;20214;-76
2023/09/30 06:34:55;;;;;;;3.22;2.20;;;;;;;25.87;41.90;95048.59;5057827;28;20218;-75
2023/09/30 06:37:23;;;;;;;4.18;2.00;;;;;;;25.10;42.79;95054.56;5063821;28;20223;-79
2023/09/30 06:39:50;;;;;;;3.53;2.47;;;;;;;25.07;43.07;95049.06;5058863;28;20203;-78
2023/09/30 06:42:17;;;;;;;3.58;1.90;;;;;;;24.99;43.04;95050.34;5072138;28;20214;-77
2023/09/30 06:44:44;;;;;;;3.58;2.15;;;;;;;25.10;42.47;95045.47;5072430;28;20225;-79
2023/09/30 06:47:12;;;;;;;2.95;2.10;;;;;;;25.37;42.45;95043.59;5072185;28;20542;-76
2023/09/30 06:49:42;;;;;;;3.25;2.30;;;;;;;25.83;42.01;95037.53;5072197;28;20664;-78
2023/09/30 06:52:09;;;;;;;2.53;1.88;;;;;;;25.77;41.64;95043.97;5058086;28;20204;-78
2023/09/30 06:54:36;;;;;;;2.65;1.85;;;;;;;24.75;41.98;95041.78;5052125;28;20215;-78
2023/09/30 06:57:02;;;;;;;4.82;2.88;;;;;;;24.64;42.16;95052.16;5052440;28;20219;-76
2023/09/30 06:59:30;;;;;;;2.90;2.17;;;;;;;24.22;43.25;95049.66;5052443;28;20211;-77
2023/09/30 07:01:57;;;;;;;1.65;1.40;;;;;;;23.76;43.04;95052.66;5051975;28;20238;-77
2023/09/30 07:04:26;;;;;;;2.25;1.52;;;;;;;22.56;43.87;95060.69;5052242;28;20250;-80
2023/09/30 07:06:53;;;;;;;2.50;1.63;;;;;;;21.69;45.44;95073.88;5052248;28;20269;-79
2023/09/30 07:09:20;;;;;;;2.10;1.42;;;;;;;22.11;45.01;95072.47;5051613;28;20211;-77
2023/09/30 07:11:49;;;;;;;1.73;1.30;;;;;;;22.57;43.99;95067.81;5058316;28;20276;-80
2023/09/30 07:14:16;;;;;;;3.67;1.35;;;;;;;22.57;43.27;95078.84;5059783;28;20203;-79
2023/09/30 07:16:43;;;;;;;2.40;1.40;;;;;;;21.80;45.02;95079.44;5053691;28;20223;-80
2023/09/30 07:19:09;;;;;;;2.45;2.00;;;;;;;22.16;45.65;95066.56;5050799;28;20203;-82
2023/09/30 07:21:38;;;;;;;2.00;1.27;;;;;;;22.25;45.41;95067.00;5052378;28;20211;-83
2023/09/30 07:24:06;;;;;;;2.65;1.63;;;;;;;22.41;44.34;95063.88;5052332;28;20716;-80
2023/09/30 07:26:33;;;;;;;2.08;1.58;;;;;;;22.58;44.30;95072.16;5052850;28;20218;-83
2023/09/30 07:29:00;;;;;;;2.17;1.60;;;;;;;22.70;43.72;95068.22;5054351;28;20647;-79
2023/09/30 07:31:27;;;;;;;1.48;1.13;;;;;;;22.56;43.87;95076.47;5063761;28;20199;-79
2023/09/30 07:33:54;;;;;;;6.18;1.70;;;;;;;22.62;44.43;95070.19;5081974;28;20582;-82
2023/09/30 07:36:20;;;;;;;3.10;1.73;;;;;;;23.02;44.23;95076.53;5071705;28;20672;-80
2023/09/30 07:38:48;;;;;;;4.32;1.40;;;;;;;23.19;43.35;95070.19;5069597;28;20199;-76
2023/09/30 07:41:16;;;;;;;1.73;1.30;;;;;;;23.47;42.93;95068.53;5071626;28;20563;-77
2023/09/30 07:43:43;;;;;;;1.98;1.48;;;;;;;23.38;42.84;95072.50;5071518;28;20248;-78
2023/09/30 07:46:10;;;;;;;2.47;1.70;;;;;;;22.78;44.75;95066.28;5070870;28;20226;-78
2023/09/30 07:48:38;;;;;;;2.65;1.48;;;;;;;22.99;44.29;95071.78;5071440;28;20213;-79
2023/09/30 07:51:09;;;;;;;1.90;1.52;;;;;;;23.03;43.71;95072.56;5071507;28;20207;-77
2023/09/30 07:53:36;;;;;;;2.20;1.38;;;;;;;22.91;43.74;95067.47;5071654;28;20241;-77
2023/09/30 07:56:04;;;;;;;4.15;1.73;;;;;;;22.96;43.82;95072.59;5071489;28;20260;-77
2023/09/30 07:58:32;;;;;;;2.00;1.30;;;;;;;22.56;43.78;95066.22;5070739;28;20531;-77
2023/09/30 08:01:01;;;;;;;2.15;1.35;;;;;;;23.20;43.53;95066.25;5070832;28;20214;-79
2023/09/30 08:03:29;;;;;;;1.63;1.20;;;;;;;23.36;43.45;95074.91;5071418;28;20553;-78
2023/09/30 08:05:57;;;;;;;2.50;1.48;;;;;;;23.51;42.38;95070.13;5071378;28;20602;-76
2023/09/30 08:08:25;;;;;;;1.88;1.10;;;;;;;23.35;42.23;95076.09;5063111;28;20196;-77
2023/09/30 08:10:55;;;;;;;2.25;1.30;;;;;;;23.24;41.74;95078.06;5051484;28;20285;-77
2023/09/30 08:13:24;;;;;;;1.55;1.20;;;;;;;23.48;41.27;95072.88;5049445;28;20210;-76
2023/09/30 08:15:53;;;;;;;2.63;1.38;;;;;;;22.86;42.53;95073.38;5050443;28;20211;-75
2023/09/30 08:18:20;;;;;;;2.35;1.50;;;;;;;22.99;42.68;95071.78;5050639;28;20276;-75
2023/09/30 08:20:47;;;;;;;2.00;1.60;;;;;;;22.83;43.34;95079.69;5049172;28;20203;-77
2023/09/30 08:23:14;;;;;;;2.60;1.58;;;;;;;22.83;42.72;95076.91;5063975;28;20294;-76
2023/09/30 08:25:41;;;;;;;2.20;1.88;;;;;;;23.04;42.00;95074.16;5070870;28;20585;-78
2023/09/30 08:28:09;;;;;;;1.77;1.67;;;;;;;23.18;41.63;95074.13;5071234;28;20245;-76
2023/09/30 08:30:38;;;;;;;1.98;1.55;;;;;;;23.35;40.42;95067.00;5070704;28;20634;-79
2023/09/30 08:33:07;;;;;;;2.13;1.52;;;;;;;23.52;40.57;95073.69;5060177;28;20209;-79
2023/09/30 08:35:36;;;;;;;2.47;1.40;;;;;;;23.69;40.27;95070.06;5050049;28;20714;-80
2023/09/30 08:38:03;;;;;;;2.10;1.48;;;;;;;24.02;39.29;95077.06;5050922;28;20239;-77
2023/09/30 08:40:30;;;;;;;2.35;1.58;;;;;;;24.19;39.29;95062.31;5051016;28;20612;-74
2023/09/30 08:42:57;;;;;;;3.50;2.03;;;;;;;24.03;38.23;95067.56;5050569;28;20220;-77
2023/09/30 08:45:25;;;;;;;3.28;2.00;;;;;;;23.86;37.92;95063.69;5058816;28;20215;-78
2023/09/30 08:47:54;;;;;;;2.53;1.90;;;;;;;23.80;38.38;95065.28;5064677;28;20211;-75
2023/09/30 08:50:21;;;;;;;1.73;1.40;;;;;;;23.79;38.72;95058.16;5067374;28;20664;-78
2023/09/30 08:52:50;;;;;;;2.17;1.98;;;;;;;23.81;38.20;95066.06;5064291;28;20209;-77
2023/09/30 08:55:17;;;;;;;3.35;2.08;;;;;;;23.72;37.94;95067.31;5057126;28;20219;-78
2023/09/30 08:57:44;;;;;;;2.80;1.98;;;;;;;23.60;37.38;95050.34;5069249;28;20221;-76
2023/09/30 09:00:13;;;;;;;2.70;1.75;;;;;;;23.30;37.96;95059.88;5066807;28;20640;-77
2023/09/30 09:02:40;;;;;;;4.10;2.20;;;;;;;23.11;37.57;95057.53;5059009;28;20258;-76
2023/09/30 09:05:11;;;;;;;3.35;2.53;;;;;;;23.51;37.61;95063.81;5069411;28;20211;-76
2023/09/30 09:07:38;;;;;;;2.90;2.10;;;;;;;23.36;38.59;95054.75;5061770;28;20199;-75
2023/09/30 09:10:07;;;;;;;4.38;2.28;;;;;;;23.70;37.96;95052.28;5062013;28;20215;-76
2023/09/30 09:12:35;;;;;;;3.00;2.50;;;;;;;23.95;36.67;95036.34;5057193;28;20222;-79
2023/09/30 09:15:03;;;;;;;3.95;2.47;;;;;;;24.22;35.87;95036.59;5062373;28;20194;-80
2023/09/30 09:17:42;;;;;;;4.03;2.42;;;;;;;24.56;36.02;95038.78;5058377;28;20705;-78
2023/09/30 09:20:14;;;;;;;4.97;2.40;;;;;;;24.44;36.07;95042.81;5055987;28;20274;-79
2023/09/30 09:22:41;;;;;;;2.97;2.00;;;;;;;24.47;36.93;95042.00;5064878;28;20233;-82
2023/09/30 09:25:10;;;;;;;3.03;2.10;;;;;;;24.20;36.58;95032.66;5063570;28;20204;-80
2023/09/30 09:27:38;;;;;;;2.42;2.03;;;;;;;24.33;36.42;95036.56;5058312;28;20199;-79
2023/09/30 09:30:19;;;;;;;3.58;2.38;;;;;;;24.08;35.92;95037.47;5056431;28;20269;-76
2023/09/30 09:33:04;;;;;;;4.05;2.17;;;;;;;24.41;36.16;95038.09;5055905;28;20247;-75
2023/09/30 09:35:35;;;;;;;2.60;2.13;;;;;;;24.93;35.24;95032.53;5053233;28;20214;-76
2023/09/30 09:38:04;;;;;;;3.15;2.10;;;;;;;24.70;35.59;95028.38;5057508;28;20368;-75
2023/09/30 09:40:32;;;;;;;4.55;2.10;;;;;;;24.59;35.67;95026.88;5062099;28;20714;-75
2023/09/30 09:43:04;;;;;;;2.50;1.88;;;;;;;24.21;36.31;95034.22;5059387;28;20254;-77
2023/09/30 09:45:34;;;;;;;3.03;1.83;;;;;;;23.92;35.88;95028.84;5056497;28;20214;-76
2023/09/30 09:48:04;;;;;;;2.78;1.98;;;;;;;24.00;35.64;95024.88;5061204;28;20211;-76
2023/09/30 09:50:33;;;;;;;2.20;1.77;;;;;;;24.33;35.58;95015.19;5056301;28;20206;-76
2023/09/30 09:53:00;;;;;;;3.35;2.28;;;;;;;24.53;35.25;95018.22;5059554;28;20286;-75
2023/09/30 09:55:28;;;;;;;2.67;1.80;;;;;;;24.38;36.08;95031.38;5055163;28;20200;-74
2023/09/30 09:57:58;;;;;;;2.05;1.40;;;;;;;23.97;35.72;95030.41;5058837;28;20232;-77
2023/09/30 10:00:27;;;;;;;1.63;1.20;;;;;;;23.54;36.28;95029.81;5060501;28;20203;-74
2023/09/30 10:02:54;;;;;;;1.10;1.00;;;;;;;23.48;35.67;95034.16;5063293;28;20203;-75
2023/09/30 10:05:22;;;;;;;1.75;1.50;;;;;;;23.44;36.32;95030.63;5061665;28;20210;-77
2023/09/30 10:07:58;;;;;;;3.55;1.38;;;;;;;23.48;36.14;95025.88;5065289;28;20210;-82
2023/09/30 10:10:27;;;;;;;2.67;1.48;;;;;;;23.75;35.89;95002.06;5062937;28;20218;-76
2023/09/30 10:12:53;;;;;;;3.28;1.50;;;;;;;24.04;35.75;95003.50;5065514;28;20202;-76
2023/09/30 10:15:43;;;;;;;2.88;1.75;;;;;;;24.19;35.90;95000.66;5064316;28;20651;-77
2023/09/30 10:18:12;;;;;;;2.42;1.50;;;;;;;24.33;35.27;94997.78;5062405;28;20238;-77
2023/09/30 10:20:41;;;;;;;2.90;1.30;;;;;;;24.33;34.96;94990.25;5064482;28;20275;-75
2023/09/30 10:23:24;;;;;;;2.60;1.60;;;;;;;24.42;34.53;94995.34;5063190;28;20207;-78
2023/09/30 10:25:57;;;;;;;1.83;1.50;;;;;;;24.58;34.20;94998.41;5064175;28;20204;-80
2023/09/30 10:28:39;;;;;;;1.80;1.30;;;;;;;24.36;34.89;94985.88;5061514;28;20187;-78
2023/09/30 10:31:09;;;;;;;1.70;1.20;;;;;;;24.18;34.73;94983.25;5063269;28;20202;-75
2023/09/30 10:33:36;;;;;;;2.65;1.27;;;;;;;24.56;34.37;94989.69;5069824;28;20205;-79
2023/09/30 10:36:04;;;;;;;1.90;1.33;;;;;;;24.20;33.76;94988.34;5070591;28;20256;-81
2023/09/30 10:38:41;;;;;;;1.52;1.10;;;;;;;24.10;34.14;94979.72;5070491;28;20281;-79
2023/09/30 10:41:09;;;;;;;1.48;1.20;;;;;;;24.21;33.98;94970.53;5072382;28;20511;-79
2023/09/30 10:43:37;;;;;;;1.45;1.05;;;;;;;24.45;33.44;94977.94;5072192;28;20207;-75
2023/09/30 10:46:33;;;;;;;1.40;1.30;;;;;;;24.72;33.19;94970.56;5073010;28;20225;-81
2023/09/30 10:49:31;;;;;;;2.13;1.00;;;;;;;24.95;33.08;94972.75;5072333;28;20199;-82
2023/09/30 10:51:59;;;;;;;5.47;1.13;;;;;;;24.74;32.60;94962.59;5072738;28;20206;-81
2023/09/30 10:54:29;;;;;;;1.52;1.30;;;;;;;24.57;32.94;94963.56;5071922;28;20714;-79
2023/09/30 10:56:58;;;;;;;2.15;1.30;;;;;;;24.56;32.58;94978.63;5072324;28;20260;-78
2023/09/30 10:59:27;;;;;;;3.15;1.08;;;;;;;24.18;32.54;94976.91;5071386;28;20609;-78
2023/09/30 11:01:54;;;;;;;1.00;0.90;;;;;;;24.01;33.41;94975.84;5072441;28;20521;-83
2023/09/30 11:04:21;;;;;;;1.38;1.02;;;;;;;24.22;33.29;94969.34;5071718;28;20250;-77
2023/09/30 11:06:49;;;;;;;1.30;1.00;;;;;;;24.26;32.79;94954.31;5070388;28;20219;-78
2023/09/30 11:09:21;;;;;;;1.38;0.93;;;;;;;24.41;32.77;94966.09;5070504;28;20282;-79
2023/09/30 11:11:51;;;;;;;1.48;1.02;;;;;;;24.32;32.47;94957.47;5072349;28;20242;-81
2023/09/30 11:14:19;;;;;;;1.92;1.73;;;;;;;24.45;32.60;94961.31;5071733;28;20203;-80
2023/09/30 11:16:46;;;;;;;1.45;0.93;;;;;;;24.21;32.66;94959.47;5072327;28;20203;-81
2023/09/30 11:19:15;;;;;;;1.42;1.00;;;;;;;24.15;32.98;94952.81;5071380;28;20234;-80
2023/09/30 11:21:43;;;;;;;2.45;1.83;;;;;;;24.20;32.55;94957.88;5071909;28;20245;-82
2023/09/30 11:24:10;;;;;;;1.50;1.15;;;;;;;24.34;32.49;94964.13;5072181;28;20206;-84
2023/09/30 11:26:41;;;;;;;1.05;0.95;;;;;;;24.30;33.32;94949.56;5071526;28;20199;-79
2023/09/30 11:29:11;;;;;;;1.25;1.10;;;;;;;24.35;32.58;94956.63;5071907;28;20280;-82
2023/09/30 11:31:39;;;;;;;1.52;1.20;;;;;;;24.06;33.12;94956.81;5071649;28;20214;-77
2023/09/30 11:34:07;;;;;;;1.58;1.20;;;;;;;23.92;33.51;94950.56;5071474;28;20202;-78
2023/09/30 11:36:35;;;;;;;1.08;0.98;;;;;;;24.00;33.33;94936.28;5071110;28;20298;-79
2023/09/30 11:39:03;;;;;;;1.35;1.05;;;;;;;24.23;33.37;94944.06;5071356;28;20321;-82